sensor_id;sensor_type;location;lat;lon;timestamp;pressure;altitude;pressure_sealevel;temperature;humidity
56006;BME280;41888;44.696;10.522;2023-01-24T00:00:53;101483.19;;;4.98;100.00
56006;BME280;41888;44.696;10.522;2023-01-24T00:03:19;101484.97;;;4.97;100.00
56006;BME280;41888;44.696;10.522;2023-01-24T00:05:47;101482.50;;;4.96;100.00
56006;BME280;41888;44.696;10.522;2023-01-24T00:08:15;101493.06;;;4.96;100.00
56006;BME280;41888;44.696;10.522;2023-01-24T00:10:41;101489.72;;;4.94;100.00
56006;BME280;41888;44.696;10.522;2023-01-24T00:13:11;101486.25;;;4.93;100.00
56006;BME280;41888;44.696;10.522;2023-01-24T00:15:37;101497.75;;;4.92;100.00
56006;BME280;41888;44.696;10.522;2023-01-24T00:18:03;101504.03;;;4.91;100.00
56006;BME280;41888;44.696;10.522;2023-01-24T00:20:30;101499.56;;;4.92;100.00
56006;BME280;41888;44.696;10.522;2023-01-24T00:22:56;101509.13;;;4.93;100.00
56006;BME280;41888;44.696;10.522;2023-01-24T00:25:22;101508.19;;;4.94;100.00
56006;BME280;41888;44.696;10.522;2023-01-24T00:27:49;101516.91;;;4.94;100.00
56006;BME280;41888;44.696;10.522;2023-01-24T00:30:16;101513.44;;;4.94;100.00
56006;BME280;41888;44.696;10.522;2023-01-24T00:32:42;101519.56;;;4.94;100.00
56006;BME280;41888;44.696;10.522;2023-01-24T00:35:08;101518.72;;;4.94;100.00
56006;BME280;41888;44.696;10.522;2023-01-24T00:37:35;101524.13;;;4.92;100.00
56006;BME280;41888;44.696;10.522;2023-01-24T00:40:01;101532.75;;;4.94;100.00
56006;BME280;41888;44.696;10.522;2023-01-24T00:42:27;101526.78;;;4.92;100.00
56006;BME280;41888;44.696;10.522;2023-01-24T00:44:53;101535.69;;;4.91;100.00
56006;BME280;41888;44.696;10.522;2023-01-24T00:47:19;101540.13;;;4.91;100.00
56006;BME280;41888;44.696;10.522;2023-01-24T00:49:46;101540.13;;;4.91;100.00
56006;BME280;41888;44.696;10.522;2023-01-24T00:52:12;101545.38;;;4.91;100.00
56006;BME280;41888;44.696;10.522;2023-01-24T00:54:38;101548.88;;;4.91;100.00
56006;BME280;41888;44.696;10.522;2023-01-24T00:57:04;101550.66;;;4.91;100.00
56006;BME280;41888;44.696;10.522;2023-01-24T00:59:30;101558.72;;;4.89;100.00
56006;BME280;41888;44.696;10.522;2023-01-24T01:01:57;101555.22;;;4.89;100.00
56006;BME280;41888;44.696;10.522;2023-01-24T01:04:23;101557.88;;;4.89;100.00
56006;BME280;41888;44.696;10.522;2023-01-24T01:06:49;101552.88;;;4.86;100.00
56006;BME280;41888;44.696;10.522;2023-01-24T01:09:15;101556.38;;;4.86;100.00
56006;BME280;41888;44.696;10.522;2023-01-24T01:11:41;101557.34;;;4.85;100.00
56006;BME280;41888;44.696;10.522;2023-01-24T01:14:09;101552.06;;;4.85;100.00
56006;BME280;41888;44.696;10.522;2023-01-24T01:16:35;101550.38;;;4.84;100.00
56006;BME280;41888;44.696;10.522;2023-01-24T01:19:05;101555.91;;;4.81;100.00
56006;BME280;41888;44.696;10.522;2023-01-24T01:21:32;101563.16;;;4.79;100.00
56006;BME280;41888;44.696;10.522;2023-01-24T01:23:58;101561.34;;;4.80;100.00
56006;BME280;41888;44.696;10.522;2023-01-24T01:26:24;101572.75;;;4.80;100.00
56006;BME280;41888;44.696;10.522;2023-01-24T01:28:50;101579.53;;;4.83;100.00
56006;BME280;41888;44.696;10.522;2023-01-24T01:31:17;101574.25;;;4.83;100.00
56006;BME280;41888;44.696;10.522;2023-01-24T01:33:43;101577.16;;;4.89;100.00
56006;BME280;41888;44.696;10.522;2023-01-24T01:36:10;101577.53;;;5.14;100.00
56006;BME280;41888;44.696;10.522;2023-01-24T01:38:36;101582.84;;;5.04;100.00
56006;BME280;41888;44.696;10.522;2023-01-24T01:41:03;101583.13;;;5.01;100.00
56006;BME280;41888;44.696;10.522;2023-01-24T01:43:30;101583.81;;;4.93;100.00
56006;BME280;41888;44.696;10.522;2023-01-24T01:46:21;101587.69;;;4.99;100.00
56006;BME280;41888;44.696;10.522;2023-01-24T01:48:53;101585.06;;;4.89;100.00
56006;BME280;41888;44.696;10.522;2023-01-24T01:51:30;101585.63;;;4.93;100.00
56006;BME280;41888;44.696;10.522;2023-01-24T01:54:06;101573.97;;;4.86;100.00
56006;BME280;41888;44.696;10.522;2023-01-24T01:56:41;101580.34;;;5.02;100.00
56006;BME280;41888;44.696;10.522;2023-01-24T01:59:18;101587.97;;;5.05;100.00
56006;BME280;41888;44.696;10.522;2023-01-24T02:01:47;101588.56;;;4.90;100.00
56006;BME280;41888;44.696;10.522;2023-01-24T02:04:19;101596.31;;;4.82;100.00
56006;BME280;41888;44.696;10.522;2023-01-24T02:06:55;101592.03;;;4.81;100.00
56006;BME280;41888;44.696;10.522;2023-01-24T02:09:30;101602.28;;;4.74;100.00
56006;BME280;41888;44.696;10.522;2023-01-24T02:12:04;101606.97;;;4.71;100.00
56006;BME280;41888;44.696;10.522;2023-01-24T02:14:32;101609.91;;;4.67;100.00
56006;BME280;41888;44.696;10.522;2023-01-24T02:17:19;101603.13;;;4.65;100.00
56006;BME280;41888;44.696;10.522;2023-01-24T02:28:34;101608.69;;;4.91;100.00
56006;BME280;41888;44.696;10.522;2023-01-24T02:31:01;101614.09;;;4.80;100.00
56006;BME280;41888;44.696;10.522;2023-01-24T02:33:28;101617.41;;;4.72;100.00
56006;BME280;41888;44.696;10.522;2023-01-24T02:39:12;101619.75;;;4.65;100.00
56006;BME280;41888;44.696;10.522;2023-01-24T02:41:53;101628.66;;;4.64;100.00
56006;BME280;41888;44.696;10.522;2023-01-24T02:44:37;101614.75;;;4.62;100.00
56006;BME280;41888;44.696;10.522;2023-01-24T02:47:06;101615.06;;;4.59;100.00
56006;BME280;41888;44.696;10.522;2023-01-24T02:49:32;101605.06;;;4.53;100.00
56006;BME280;41888;44.696;10.522;2023-01-24T02:51:58;101609.19;;;4.65;100.00
56006;BME280;41888;44.696;10.522;2023-01-24T02:54:43;101618.78;;;4.76;100.00
56006;BME280;41888;44.696;10.522;2023-01-24T02:57:11;101618.78;;;4.66;100.00
56006;BME280;41888;44.696;10.522;2023-01-24T02:59:55;101619.75;;;4.65;100.00
56006;BME280;41888;44.696;10.522;2023-01-24T03:02:21;101621.97;;;4.60;100.00
56006;BME280;41888;44.696;10.522;2023-01-24T03:04:48;101619.47;;;4.49;100.00
56006;BME280;41888;44.696;10.522;2023-01-24T03:07:15;101622.66;;;4.43;100.00
56006;BME280;41888;44.696;10.522;2023-01-24T03:09:41;101632.91;;;4.37;100.00
56006;BME280;41888;44.696;10.522;2023-01-24T03:12:13;101632.16;;;4.25;100.00
56006;BME280;41888;44.696;10.522;2023-01-24T03:14:58;101632.69;;;4.19;100.00
56006;BME280;41888;44.696;10.522;2023-01-24T03:17:42;101631.31;;;4.15;100.00
56006;BME280;41888;44.696;10.522;2023-01-24T03:20:28;101627.41;;;4.09;100.00
56006;BME280;41888;44.696;10.522;2023-01-24T03:23:12;101630.06;;;4.19;100.00
56006;BME280;41888;44.696;10.522;2023-01-24T03:25:57;101639.91;;;4.17;100.00
56006;BME280;41888;44.696;10.522;2023-01-24T03:28:42;101633.22;;;4.13;100.00
56006;BME280;41888;44.696;10.522;2023-01-24T03:31:27;101638.13;;;4.27;100.00
56006;BME280;41888;44.696;10.522;2023-01-24T03:34:12;101642.13;;;4.12;100.00
56006;BME280;41888;44.696;10.522;2023-01-24T03:37:00;101639.91;;;4.17;100.00
56006;BME280;41888;44.696;10.522;2023-01-24T03:39:26;101644.75;;;4.12;100.00
56006;BME280;41888;44.696;10.522;2023-01-24T03:42:11;101649.03;;;4.13;100.00
56006;BME280;41888;44.696;10.522;2023-01-24T03:44:37;101650.25;;;4.09;100.00
56006;BME280;41888;44.696;10.522;2023-01-24T03:47:04;101641.53;;;4.08;100.00
56006;BME280;41888;44.696;10.522;2023-01-24T03:49:30;101637.72;;;4.22;100.00
56006;BME280;41888;44.696;10.522;2023-01-24T03:52:14;101639.19;;;4.15;100.00
56006;BME280;41888;44.696;10.522;2023-01-24T03:54:57;101634.91;;;4.14;100.00
56006;BME280;41888;44.696;10.522;2023-01-24T03:57:25;101637.31;;;4.36;100.00
56006;BME280;41888;44.696;10.522;2023-01-24T03:59:51;101640.06;;;4.25;100.00
56006;BME280;41888;44.696;10.522;2023-01-24T04:02:18;101635.06;;;4.12;100.00
56006;BME280;41888;44.696;10.522;2023-01-24T04:04:44;101647.81;;;4.17;100.00
56006;BME280;41888;44.696;10.522;2023-01-24T04:07:29;101634.38;;;4.20;100.00
56006;BME280;41888;44.696;10.522;2023-01-24T04:09:55;101634.38;;;4.20;100.00
56006;BME280;41888;44.696;10.522;2023-01-24T04:12:23;101648.41;;;4.30;100.00
56006;BME280;41888;44.696;10.522;2023-01-24T04:14:50;101650.47;;;4.27;100.00
56006;BME280;41888;44.696;10.522;2023-01-24T04:17:16;101645.34;;;4.25;100.00
56006;BME280;41888;44.696;10.522;2023-01-24T04:19:42;101653.72;;;4.09;100.00
56006;BME280;41888;44.696;10.522;2023-01-24T04:22:09;101660.56;;;4.12;100.00
56006;BME280;41888;44.696;10.522;2023-01-24T04:24:35;101657.41;;;3.97;100.00
56006;BME280;41888;44.696;10.522;2023-01-24T04:27:01;101661.47;;;4.01;100.00
56006;BME280;41888;44.696;10.522;2023-01-24T04:29:27;101662.88;;;4.05;100.00
56006;BME280;41888;44.696;10.522;2023-01-24T04:31:53;101663.72;;;4.06;100.00
56006;BME280;41888;44.696;10.522;2023-01-24T04:34:20;101667.38;;;3.94;100.00
56006;BME280;41888;44.696;10.522;2023-01-24T04:36:46;101664.66;;;4.05;100.00
56006;BME280;41888;44.696;10.522;2023-01-24T04:39:12;101659.22;;;3.97;100.00
56006;BME280;41888;44.696;10.522;2023-01-24T04:41:38;101666.69;;;3.92;100.00
56006;BME280;41888;44.696;10.522;2023-01-24T04:44:04;101669.59;;;3.89;100.00
56006;BME280;41888;44.696;10.522;2023-01-24T04:46:31;101666.69;;;3.92;100.00
56006;BME280;41888;44.696;10.522;2023-01-24T04:48:57;101660.06;;;3.97;100.00
56006;BME280;41888;44.696;10.522;2023-01-24T04:51:23;101655.47;;;3.90;100.00
56006;BME280;41888;44.696;10.522;2023-01-24T04:53:49;101663.59;;;3.87;100.00
56006;BME280;41888;44.696;10.522;2023-01-24T04:56:15;101659.44;;;3.84;100.00
56006;BME280;41888;44.696;10.522;2023-01-24T04:58:41;101672.63;;;3.84;100.00
56006;BME280;41888;44.696;10.522;2023-01-24T05:01:08;101663.59;;;3.87;100.00
56006;BME280;41888;44.696;10.522;2023-01-24T05:03:34;101661.56;;;3.90;100.00
56006;BME280;41888;44.696;10.522;2023-01-24T05:06:00;101667.03;;;3.77;100.00
56006;BME280;41888;44.696;10.522;2023-01-24T05:08:26;101667.75;;;3.79;100.00
56006;BME280;41888;44.696;10.522;2023-01-24T05:10:53;101665.78;;;3.81;100.00
56006;BME280;41888;44.696;10.522;2023-01-24T05:13:19;101662.78;;;3.86;100.00
56006;BME280;41888;44.696;10.522;2023-01-24T05:15:50;101665.56;;;3.85;100.00
56006;BME280;41888;44.696;10.522;2023-01-24T05:18:16;101677.47;;;3.89;100.00
56006;BME280;41888;44.696;10.522;2023-01-24T05:20:43;101671.25;;;3.90;100.00
56006;BME280;41888;44.696;10.522;2023-01-24T05:23:09;101675.75;;;3.78;100.00
56006;BME280;41888;44.696;10.522;2023-01-24T05:25:36;101675.31;;;3.73;100.00
56006;BME280;41888;44.696;10.522;2023-01-24T05:28:02;101682.09;;;3.75;100.00
56006;BME280;41888;44.696;10.522;2023-01-24T05:30:29;101690.00;;;3.75;100.00
56006;BME280;41888;44.696;10.522;2023-01-24T05:32:56;101699.06;;;3.82;100.00
56006;BME280;41888;44.696;10.522;2023-01-24T05:35:23;101696.56;;;3.81;100.00
56006;BME280;41888;44.696;10.522;2023-01-24T05:37:50;101697.28;;;3.83;100.00
56006;BME280;41888;44.696;10.522;2023-01-24T05:40:17;101704.09;;;3.86;100.00
56006;BME280;41888;44.696;10.522;2023-01-24T05:42:43;101701.25;;;3.77;100.00
56006;BME280;41888;44.696;10.522;2023-01-24T05:45:10;101702.13;;;3.88;100.00
56006;BME280;41888;44.696;10.522;2023-01-24T05:47:36;101709.03;;;3.79;100.00
56006;BME280;41888;44.696;10.522;2023-01-24T05:50:02;101715.44;;;3.65;100.00
56006;BME280;41888;44.696;10.522;2023-01-24T05:52:29;101718.97;;;3.55;100.00
56006;BME280;41888;44.696;10.522;2023-01-24T05:54:55;101721.47;;;3.77;100.00
56006;BME280;41888;44.696;10.522;2023-01-24T05:57:21;101722.66;;;3.63;100.00
56006;BME280;41888;44.696;10.522;2023-01-24T05:59:47;101725.97;;;3.65;100.00
56006;BME280;41888;44.696;10.522;2023-01-24T06:02:13;101728.69;;;3.75;100.00
56006;BME280;41888;44.696;10.522;2023-01-24T06:04:39;101728.91;;;3.72;100.00
56006;BME280;41888;44.696;10.522;2023-01-24T06:07:06;101722.25;;;3.68;100.00
56006;BME280;41888;44.696;10.522;2023-01-24T06:09:32;101725.00;;;3.66;100.00
56006;BME280;41888;44.696;10.522;2023-01-24T06:11:58;101727.56;;;3.77;100.00
56006;BME280;41888;44.696;10.522;2023-01-24T06:14:24;101733.63;;;3.89;100.00
56006;BME280;41888;44.696;10.522;2023-01-24T06:16:50;101730.84;;;3.91;100.00
56006;BME280;41888;44.696;10.522;2023-01-24T06:19:17;101734.25;;;3.81;100.00
56006;BME280;41888;44.696;10.522;2023-01-24T06:21:59;101739.50;;;3.81;100.00
56006;BME280;41888;44.696;10.522;2023-01-24T06:24:28;101740.66;;;3.89;100.00
56006;BME280;41888;44.696;10.522;2023-01-24T06:26:54;101754.75;;;3.78;100.00
56006;BME280;41888;44.696;10.522;2023-01-24T06:29:21;101747.78;;;3.77;100.00
56006;BME280;41888;44.696;10.522;2023-01-24T06:39:24;101755.50;;;3.69;100.00
56006;BME280;41888;44.696;10.522;2023-01-24T06:41:50;101758.09;;;3.80;100.00
56006;BME280;41888;44.696;10.522;2023-01-24T06:44:17;101772.44;;;3.76;100.00
56006;BME280;41888;44.696;10.522;2023-01-24T06:46:43;101768.06;;;3.65;100.00
56006;BME280;41888;44.696;10.522;2023-01-24T06:49:12;101772.50;;;3.65;100.00
56006;BME280;41888;44.696;10.522;2023-01-24T06:51:39;101770.13;;;3.62;100.00
56006;BME280;41888;44.696;10.522;2023-01-24T06:54:05;101774.78;;;3.69;100.00
56006;BME280;41888;44.696;10.522;2023-01-24T06:56:31;101772.88;;;3.60;100.00
56006;BME280;41888;44.696;10.522;2023-01-24T06:58:57;101778.97;;;3.61;100.00
56006;BME280;41888;44.696;10.522;2023-01-24T07:01:24;101782.91;;;3.66;100.00
56006;BME280;41888;44.696;10.522;2023-01-24T07:03:51;101780.78;;;3.60;100.00
56006;BME280;41888;44.696;10.522;2023-01-24T07:06:17;101787.94;;;3.69;100.00
56006;BME280;41888;44.696;10.522;2023-01-24T07:08:43;101789.34;;;3.73;100.00
56006;BME280;41888;44.696;10.522;2023-01-24T07:11:09;101791.53;;;3.68;100.00
56006;BME280;41888;44.696;10.522;2023-01-24T07:13:35;101796.66;;;3.70;100.00
56006;BME280;41888;44.696;10.522;2023-01-24T07:16:02;101800.38;;;3.67;100.00
56006;BME280;41888;44.696;10.522;2023-01-24T07:18:29;101800.88;;;3.61;100.00
56006;BME280;41888;44.696;10.522;2023-01-24T07:20:55;101806.13;;;3.61;100.00
56006;BME280;41888;44.696;10.522;2023-01-24T07:23:25;101812.34;;;3.60;100.00
56006;BME280;41888;44.696;10.522;2023-01-24T07:25:54;101816.50;;;3.74;100.00
56006;BME280;41888;44.696;10.522;2023-01-24T07:28:21;101823.28;;;3.76;100.00
56006;BME280;41888;44.696;10.522;2023-01-24T07:30:48;101808.94;;;3.80;100.00
56006;BME280;41888;44.696;10.522;2023-01-24T07:33:15;101817.97;;;3.88;100.00
56006;BME280;41888;44.696;10.522;2023-01-24T07:35:42;101823.06;;;4.00;100.00
56006;BME280;41888;44.696;10.522;2023-01-24T07:38:09;101826.84;;;4.07;100.00
56006;BME280;41888;44.696;10.522;2023-01-24T07:40:36;101823.47;;;4.16;100.00
56006;BME280;41888;44.696;10.522;2023-01-24T07:43:04;101828.72;;;4.16;100.00
56006;BME280;41888;44.696;10.522;2023-01-24T07:45:31;101829.50;;;4.28;100.00
56006;BME280;41888;44.696;10.522;2023-01-24T07:47:58;101829.09;;;4.33;100.00
56006;BME280;41888;44.696;10.522;2023-01-24T07:50:26;101831.34;;;4.37;100.00
56006;BME280;41888;44.696;10.522;2023-01-24T07:52:55;101838.81;;;4.32;100.00
56006;BME280;41888;44.696;10.522;2023-01-24T07:55:22;101837.50;;;4.47;100.00
56006;BME280;41888;44.696;10.522;2023-01-24T07:57:49;101842.50;;;4.50;100.00
56006;BME280;41888;44.696;10.522;2023-01-24T08:00:16;101850.59;;;4.58;100.00
56006;BME280;41888;44.696;10.522;2023-01-24T08:02:43;101853.16;;;4.70;100.00
56006;BME280;41888;44.696;10.522;2023-01-24T08:05:10;101854.03;;;4.80;100.00
56006;BME280;41888;44.696;10.522;2023-01-24T08:07:37;101852.06;;;4.82;100.00
56006;BME280;41888;44.696;10.522;2023-01-24T08:10:04;101859.03;;;4.83;100.00
56006;BME280;41888;44.696;10.522;2023-01-24T08:12:30;101863.34;;;4.84;100.00
56006;BME280;41888;44.696;10.522;2023-01-24T08:14:56;101874.88;;;4.92;100.00
56006;BME280;41888;44.696;10.522;2023-01-24T08:17:22;101883.94;;;4.99;100.00
56006;BME280;41888;44.696;10.522;2023-01-24T08:19:49;101888.38;;;4.99;100.00
56006;BME280;41888;44.696;10.522;2023-01-24T08:22:15;101887.53;;;4.98;100.00
56006;BME280;41888;44.696;10.522;2023-01-24T08:24:41;101906.97;;;4.97;100.00
56006;BME280;41888;44.696;10.522;2023-01-24T08:27:07;101906.59;;;5.02;100.00
56006;BME280;41888;44.696;10.522;2023-01-24T08:29:33;101915.19;;;5.04;100.00
56006;BME280;41888;44.696;10.522;2023-01-24T08:31:59;101915.19;;;5.04;100.00
56006;BME280;41888;44.696;10.522;2023-01-24T08:34:26;101917.47;;;5.18;100.00
56006;BME280;41888;44.696;10.522;2023-01-24T08:36:52;101913.84;;;5.19;100.00
56006;BME280;41888;44.696;10.522;2023-01-24T08:39:18;101909.09;;;5.13;100.00
56006;BME280;41888;44.696;10.522;2023-01-24T08:41:44;101921.22;;;5.16;100.00
56006;BME280;41888;44.696;10.522;2023-01-24T08:44:12;101924.56;;;5.18;100.00
56006;BME280;41888;44.696;10.522;2023-01-24T08:46:39;101911.41;;;5.37;100.00
56006;BME280;41888;44.696;10.522;2023-01-24T08:49:06;101907.53;;;5.41;100.00
56006;BME280;41888;44.696;10.522;2023-01-24T08:51:32;101915.84;;;5.36;100.00
56006;BME280;41888;44.696;10.522;2023-01-24T08:53:58;101915.41;;;5.22;100.00
56006;BME280;41888;44.696;10.522;2023-01-24T08:56:24;101917.47;;;5.18;100.00
56006;BME280;41888;44.696;10.522;2023-01-24T08:58:50;101933.56;;;5.15;100.00
56006;BME280;41888;44.696;10.522;2023-01-24T09:01:16;101922.56;;;5.10;100.00
56006;BME280;41888;44.696;10.522;2023-01-24T09:03:43;101921.88;;;5.08;100.00
56006;BME280;41888;44.696;10.522;2023-01-24T09:06:09;101925.50;;;5.07;100.00
56006;BME280;41888;44.696;10.522;2023-01-24T09:08:36;101923.09;;;5.04;100.00
56006;BME280;41888;44.696;10.522;2023-01-24T09:11:02;101919.63;;;5.03;100.00
56006;BME280;41888;44.696;10.522;2023-01-24T09:13:29;101929.09;;;5.06;100.00
56006;BME280;41888;44.696;10.522;2023-01-24T09:15:58;101929.09;;;5.06;100.00
56006;BME280;41888;44.696;10.522;2023-01-24T09:18:24;101927.97;;;5.08;100.00
56006;BME280;41888;44.696;10.522;2023-01-24T09:20:51;101926.69;;;5.33;100.00
56006;BME280;41888;44.696;10.522;2023-01-24T09:23:17;101930.28;;;5.23;100.00
56006;BME280;41888;44.696;10.522;2023-01-24T09:25:50;101931.91;;;5.24;100.00
56006;BME280;41888;44.696;10.522;2023-01-24T09:28:17;101936.97;;;5.36;100.00
56006;BME280;41888;44.696;10.522;2023-01-24T09:30:49;101934.34;;;5.36;100.00
56006;BME280;41888;44.696;10.522;2023-01-24T09:33:16;101942.38;;;5.35;100.00
56006;BME280;41888;44.696;10.522;2023-01-24T09:36:00;101939.63;;;5.36;100.00
56006;BME280;41888;44.696;10.522;2023-01-24T09:38:30;101939.19;;;5.31;100.00
56006;BME280;41888;44.696;10.522;2023-01-24T09:43:42;101940.28;;;5.29;100.00
56006;BME280;41888;44.696;10.522;2023-01-24T09:46:32;101937.25;;;5.33;100.00
56006;BME280;41888;44.696;10.522;2023-01-24T09:51:55;101944.31;;;5.23;100.00
56006;BME280;41888;44.696;10.522;2023-01-24T09:54:36;101959.56;;;5.29;100.00
56006;BME280;41888;44.696;10.522;2023-01-24T09:57:16;101948.94;;;5.40;100.00
56006;BME280;41888;44.696;10.522;2023-01-24T09:59:48;101950.88;;;5.38;100.00
56006;BME280;41888;44.696;10.522;2023-01-24T10:02:20;101951.75;;;5.48;100.00
56006;BME280;41888;44.696;10.522;2023-01-24T10:04:48;101952.75;;;5.67;100.00
56006;BME280;41888;44.696;10.522;2023-01-24T10:07:26;101949.31;;;5.85;100.00
56006;BME280;41888;44.696;10.522;2023-01-24T10:24:20;101958.41;;;6.21;100.00
56006;BME280;41888;44.696;10.522;2023-01-24T10:26:50;101952.84;;;6.24;100.00
56006;BME280;41888;44.696;10.522;2023-01-24T10:29:25;101953.84;;;6.23;100.00
56006;BME280;41888;44.696;10.522;2023-01-24T10:34:28;101946.28;;;6.19;100.00
56006;BME280;41888;44.696;10.522;2023-01-24T10:37:38;101948.13;;;6.18;100.00
56006;BME280;41888;44.696;10.522;2023-01-24T10:39:45;101949.22;;;6.16;100.00
56006;BME280;41888;44.696;10.522;2023-01-24T10:42:24;101945.63;;;6.17;100.00
56006;BME280;41888;44.696;10.522;2023-01-24T10:45:00;101941.84;;;6.19;100.00
56006;BME280;41888;44.696;10.522;2023-01-24T10:47:46;101945.34;;;6.10;100.00
56006;BME280;41888;44.696;10.522;2023-01-24T10:50:17;101943.25;;;6.04;100.00
56006;BME280;41888;44.696;10.522;2023-01-24T10:52:44;101943.66;;;5.90;100.00
56006;BME280;41888;44.696;10.522;2023-01-24T10:55:34;101942.97;;;6.07;100.00
56006;BME280;41888;44.696;10.522;2023-01-24T10:58:22;101943.53;;;6.01;100.00
56006;BME280;41888;44.696;10.522;2023-01-24T11:01:04;101947.84;;;6.12;100.00
56006;BME280;41888;44.696;10.522;2023-01-24T11:03:32;101942.69;;;6.10;100.00
56006;BME280;41888;44.696;10.522;2023-01-24T11:06:01;101947.72;;;6.13;100.00
56006;BME280;41888;44.696;10.522;2023-01-24T11:08:34;101938.66;;;6.16;100.00
56006;BME280;41888;44.696;10.522;2023-01-24T11:11:02;101932.94;;;6.20;100.00
56006;BME280;41888;44.696;10.522;2023-01-24T11:13:37;101931.44;;;6.18;100.00
56006;BME280;41888;44.696;10.522;2023-01-24T11:16:41;101922.38;;;6.30;100.00
56006;BME280;41888;44.696;10.522;2023-01-24T11:21:52;101920.84;;;6.37;100.00
56006;BME280;41888;44.696;10.522;2023-01-24T11:24:20;101912.06;;;6.46;100.00
56006;BME280;41888;44.696;10.522;2023-01-24T11:27:17;101904.09;;;6.56;100.00
56006;BME280;41888;44.696;10.522;2023-01-24T11:29:44;101901.59;;;6.64;100.00
56006;BME280;41888;44.696;10.522;2023-01-24T11:32:41;101897.81;;;6.76;100.00
56006;BME280;41888;44.696;10.522;2023-01-24T11:35:15;101898.78;;;6.75;100.00
56006;BME280;41888;44.696;10.522;2023-01-24T11:48:21;101881.09;;;7.12;100.00
56006;BME280;41888;44.696;10.522;2023-01-24T11:59:57;101867.63;;;9.65;100.00
56006;BME280;41888;44.696;10.522;2023-01-24T12:02:34;101860.00;;;10.68;100.00
56006;BME280;41888;44.696;10.522;2023-01-24T12:05:31;101862.78;;;10.74;100.00
56006;BME280;41888;44.696;10.522;2023-01-24T12:21:37;101865.16;;;8.72;100.00
56006;BME280;41888;44.696;10.522;2023-01-24T12:24:19;101865.19;;;9.14;100.00
56006;BME280;41888;44.696;10.522;2023-01-24T12:27:00;101863.84;;;8.76;100.00
56006;BME280;41888;44.696;10.522;2023-01-24T12:29:30;101860.69;;;8.72;100.00
56006;BME280;41888;44.696;10.522;2023-01-24T12:32:27;101864.69;;;8.51;100.00
56006;BME280;41888;44.696;10.522;2023-01-24T12:35:09;101861.22;;;8.15;100.00
56006;BME280;41888;44.696;10.522;2023-01-24T12:40:35;101863.63;;;7.64;100.00
56006;BME280;41888;44.696;10.522;2023-01-24T12:46:13;101861.31;;;7.34;100.00
56006;BME280;41888;44.696;10.522;2023-01-24T12:49:06;101863.72;;;7.28;100.00
56006;BME280;41888;44.696;10.522;2023-01-24T12:52:03;101863.47;;;7.21;100.00
56006;BME280;41888;44.696;10.522;2023-01-24T12:57:19;101864.22;;;7.13;100.00
56006;BME280;41888;44.696;10.522;2023-01-24T12:59:49;101863.97;;;7.07;100.00
56006;BME280;41888;44.696;10.522;2023-01-24T13:12:53;101856.72;;;7.54;100.00
56006;BME280;41888;44.696;10.522;2023-01-24T13:15:24;101851.13;;;7.57;100.00
56006;BME280;41888;44.696;10.522;2023-01-24T13:18:12;101851.94;;;7.57;100.00
56006;BME280;41888;44.696;10.522;2023-01-24T13:21:04;101841.94;;;7.51;100.00
56006;BME280;41888;44.696;10.522;2023-01-24T13:24:09;101849.69;;;7.45;100.00
56006;BME280;41888;44.696;10.522;2023-01-24T13:29:59;101848.25;;;7.50;100.00
56006;BME280;41888;44.696;10.522;2023-01-24T13:32:27;101849.25;;;7.49;100.00
56006;BME280;41888;44.696;10.522;2023-01-24T13:34:56;101846.28;;;7.52;100.00
56006;BME280;41888;44.696;10.522;2023-01-24T13:37:26;101845.75;;;7.49;100.00
56006;BME280;41888;44.696;10.522;2023-01-24T13:40:24;101849.69;;;7.45;100.00
56006;BME280;41888;44.696;10.522;2023-01-24T13:42:52;101849.31;;;7.57;100.00
56006;BME280;41888;44.696;10.522;2023-01-24T13:51:31;101838.53;;;7.94;100.00
56006;BME280;41888;44.696;10.522;2023-01-24T13:54:18;101839.25;;;8.22;100.00
56006;BME280;41888;44.696;10.522;2023-01-24T13:57:24;101845.91;;;7.83;100.00
56006;BME280;41888;44.696;10.522;2023-01-24T14:02:27;101842.94;;;8.03;100.00
56006;BME280;41888;44.696;10.522;2023-01-24T14:04:55;101843.31;;;7.91;100.00
56006;BME280;41888;44.696;10.522;2023-01-24T14:07:35;101844.44;;;7.88;100.00
56006;BME280;41888;44.696;10.522;2023-01-24T14:10:04;101839.69;;;7.74;100.00
56006;BME280;41888;44.696;10.522;2023-01-24T14:12:37;101843.56;;;7.62;100.00
56006;BME280;41888;44.696;10.522;2023-01-24T14:23:04;101847.38;;;7.77;100.00
56006;BME280;41888;44.696;10.522;2023-01-24T14:25:39;101841.88;;;8.14;100.00
56006;BME280;41888;44.696;10.522;2023-01-24T14:30:52;101846.88;;;7.99;100.00
56006;BME280;41888;44.696;10.522;2023-01-24T14:33:41;101859.22;;;7.91;100.00
56006;BME280;41888;44.696;10.522;2023-01-24T14:36:15;101859.09;;;7.92;100.00
56006;BME280;41888;44.696;10.522;2023-01-24T14:38:45;101872.25;;;7.84;100.00
56006;BME280;41888;44.696;10.522;2023-01-24T14:41:20;101870.66;;;7.74;100.00
56006;BME280;41888;44.696;10.522;2023-01-24T14:43:48;101867.94;;;7.66;100.00
56006;BME280;41888;44.696;10.522;2023-01-24T14:46:24;101861.72;;;7.75;100.00
56006;BME280;41888;44.696;10.522;2023-01-24T14:48:51;101863.31;;;7.68;100.00
56006;BME280;41888;44.696;10.522;2023-01-24T14:51:23;101871.78;;;8.24;100.00
56006;BME280;41888;44.696;10.522;2023-01-24T14:53:52;101863.91;;;8.58;100.00
56006;BME280;41888;44.696;10.522;2023-01-24T14:56:20;101858.38;;;8.52;100.00
56006;BME280;41888;44.696;10.522;2023-01-24T14:58:47;101850.78;;;8.31;100.00